首页
METAR-TAF:

METAR-TAF

机场 :

雅温得-恩西马兰国际机场

雅温得, 喀麦隆

纬度: 03-50N, 经度: 011-31E, 海拔: 751米

当前天气观测

该预报发布于52分钟前的19:00 UTC
风速3节,风向西
温度 24°C
湿度 83%
气压 1016 hPa
能見度: 8000
散云层高于1600英尺

METAR: FKYS 231900Z 27003KT 8000 SCT016 24/21 Q1016 NOSIG

时间: 20:52 (19:52 UTC)

预报

该预报发布于8小时和52分钟前的11:00 UTC
预报有效从23日的 12点(UTC)到 24日的 12点(UTC)
风速6节,风向西
能見度: 8000
多云层高于1600英尺
几率 40%
从 23日的 16点(UTC)到 23日的 21点(UTC)
能見度: 4000
多云层高于1600英尺
少量云层高于2000英尺, 积雨云.
雷暴, 雨
成为
从 23日的 20点(UTC)到 23日的 22点(UTC)
多云层高于600英尺
几率 40% :
短暂存在
从 24日的 01点(UTC)到 24日的 05点(UTC)
能見度: 2000
多云层高于600英尺
散云层高于1300英尺, 积雨云.
雷暴, 雨
成为
从 24日的 08点(UTC)到 24日的 10点(UTC)
多云层高于1600英尺

TAF: FKYS 231100Z 2312/2412 26006KT 8000 BKN016 PROB40 2316/2321 4000 TSRA BKN016 FEW020CB BECMG 2320/2322 BKN006 PROB40 TEMPO 2401/2405 2000 TSRA BKN006 SCT013CB BECMG 2408/2410 BKN016

超过4000个机场的气象观测和天气预报(METAR&TAF报告)。

可查询的气象台以黄色和红色小点在地图上表示。

将鼠标移到小点上方,可查看气象台名称。

然后点击查看天气观测和预报。

如需切换地图:点击带黑十字的绿色按钮放大地图;点击带横线的绿色按钮缩小地图;或者点击绿色箭头查看邻近地区的地图。


METAR-TAF: